createdAt,value
2023-12-04T00:00:17.779Z,99.99
2023-12-04T00:01:17.809Z,99.99
2023-12-04T00:02:17.761Z,99.99
2023-12-04T00:03:17.800Z,99.99
2023-12-04T00:04:17.846Z,99.99
2023-12-04T00:05:17.820Z,99.99
2023-12-04T00:06:17.758Z,99.99
2023-12-04T00:07:17.714Z,99.99
2023-12-04T00:08:17.718Z,99.99
2023-12-04T00:09:17.688Z,99.99
2023-12-04T00:10:17.689Z,99.99
2023-12-04T00:11:17.724Z,99.99
2023-12-04T00:12:17.653Z,99.99
2023-12-04T00:13:17.641Z,99.99
2023-12-04T00:14:17.627Z,99.99
2023-12-04T00:15:17.636Z,99.99
2023-12-04T00:16:17.611Z,99.99
2023-12-04T00:17:17.606Z,99.99
2023-12-04T00:18:17.745Z,99.99
2023-12-04T00:19:17.632Z,99.99
2023-12-04T00:20:17.652Z,99.99
2023-12-04T00:21:17.674Z,99.99
2023-12-04T00:22:17.540Z,99.99
2023-12-04T00:23:17.541Z,99.99
2023-12-04T00:24:17.534Z,99.99
2023-12-04T00:25:17.520Z,99.99
2023-12-04T00:26:17.504Z,99.99
2023-12-04T00:27:17.491Z,99.99
2023-12-04T00:28:17.526Z,99.99
2023-12-04T00:29:17.629Z,99.99
2023-12-04T00:30:17.477Z,99.99
2023-12-04T00:31:17.450Z,99.99
2023-12-04T00:32:17.430Z,99.99
2023-12-04T00:33:17.603Z,99.99
2023-12-04T00:34:17.582Z,99.99
2023-12-04T00:35:17.438Z,99.99
2023-12-04T00:36:17.457Z,99.99
2023-12-04T00:37:17.467Z,99.99
2023-12-04T00:38:17.470Z,99.99
2023-12-04T00:39:17.358Z,99.99
2023-12-04T00:40:17.346Z,99.99
2023-12-04T00:41:17.343Z,99.99
2023-12-04T00:42:17.338Z,99.99
2023-12-04T00:43:17.400Z,99.99
2023-12-04T00:44:17.318Z,99.99
2023-12-04T00:45:17.300Z,99.99
2023-12-04T00:46:17.297Z,99.99
2023-12-04T00:47:17.305Z,99.99
2023-12-04T00:48:17.390Z,99.99
2023-12-04T00:49:17.371Z,99.99
2023-12-04T00:50:17.261Z,99.99
2023-12-04T00:51:17.232Z,99.99
2023-12-04T00:52:17.237Z,99.99
2023-12-04T00:53:17.231Z,99.99
2023-12-04T00:54:17.192Z,99.99
2023-12-04T00:55:17.197Z,99.99
2023-12-04T00:56:17.191Z,99.99
2023-12-04T00:57:17.185Z,99.99
2023-12-04T00:58:17.157Z,99.99
2023-12-04T00:59:17.146Z,99.99
2023-12-04T01:00:17.129Z,99.99
2023-12-04T01:01:17.414Z,99.99
2023-12-04T01:02:17.107Z,99.99
2023-12-04T01:03:17.109Z,99.99
2023-12-04T01:04:17.086Z,99.99
2023-12-04T01:05:17.084Z,99.99
2023-12-04T01:06:17.081Z,99.99
2023-12-04T01:07:17.058Z,99.99
2023-12-04T01:08:17.045Z,99.99
2023-12-04T01:09:17.038Z,99.99
2023-12-04T01:10:17.071Z,99.99
2023-12-04T01:11:17.035Z,99.99
2023-12-04T01:12:17.020Z,99.99
2023-12-04T01:13:16.994Z,99.99
2023-12-04T01:14:16.977Z,99.99
2023-12-04T01:15:16.982Z,99.99
2023-12-04T01:16:16.958Z,99.99
2023-12-04T01:17:16.957Z,99.99
2023-12-04T01:18:17.020Z,99.99
2023-12-04T01:19:17.035Z,99.99
2023-12-04T01:20:16.934Z,99.99
2023-12-04T01:21:16.926Z,99.99
2023-12-04T01:22:16.895Z,99.99
2023-12-04T01:23:16.887Z,99.99
2023-12-04T01:24:16.908Z,99.99
2023-12-04T01:25:16.880Z,99.99
2023-12-04T01:26:16.850Z,99.99
2023-12-04T01:27:16.841Z,99.99
2023-12-04T01:28:16.832Z,99.99
2023-12-04T01:29:16.835Z,99.99
2023-12-04T01:30:16.801Z,99.99
2023-12-04T01:31:16.801Z,99.99
2023-12-04T01:32:16.787Z,99.99
2023-12-04T01:33:16.845Z,99.99
2023-12-04T01:34:16.787Z,99.99
2023-12-04T01:35:16.768Z,99.99
2023-12-04T01:36:16.745Z,99.99
2023-12-04T01:37:16.740Z,99.99
2023-12-04T01:38:16.775Z,99.99
2023-12-04T01:39:16.736Z,99.99
2023-12-04T01:40:16.745Z,99.99
2023-12-04T01:41:16.708Z,99.99
2023-12-04T01:42:16.697Z,99.99
2023-12-04T01:43:16.692Z,99.99
2023-12-04T01:44:16.690Z,99.99
2023-12-04T01:45:16.646Z,99.99
2023-12-04T01:46:16.643Z,99.99
2023-12-04T01:47:16.631Z,99.99
2023-12-04T01:48:16.760Z,99.99
2023-12-04T01:49:16.619Z,99.99
2023-12-04T01:50:16.592Z,99.99
2023-12-04T01:51:16.593Z,99.99
2023-12-04T01:52:16.580Z,99.99
2023-12-04T01:53:16.580Z,99.99
2023-12-04T01:54:16.550Z,99.99
2023-12-04T01:55:16.541Z,99.99
2023-12-04T01:56:16.532Z,99.99
2023-12-04T01:57:16.538Z,99.99
2023-12-04T01:58:16.506Z,99.99
2023-12-04T01:59:16.496Z,99.99
2023-12-04T02:00:16.493Z,99.99
2023-12-04T02:01:16.488Z,99.99
2023-12-04T02:02:16.477Z,99.99
2023-12-04T02:03:16.494Z,99.99
2023-12-04T02:04:16.537Z,99.99
2023-12-04T02:05:16.435Z,99.99
2023-12-04T02:06:16.429Z,99.99
2023-12-04T02:07:16.424Z,99.99
2023-12-04T02:08:16.404Z,99.99
2023-12-04T02:09:16.390Z,99.99
2023-12-04T02:10:16.403Z,99.99
2023-12-04T02:11:16.389Z,99.99
2023-12-04T02:12:17.340Z,99.99
2023-12-04T02:13:16.348Z,99.99
2023-12-04T02:14:16.340Z,99.99
2023-12-04T02:15:16.358Z,99.99
2023-12-04T02:16:16.332Z,99.99
2023-12-04T02:17:16.310Z,99.99
2023-12-04T02:18:16.378Z,99.99
2023-12-04T02:19:16.377Z,99.99
2023-12-04T02:20:16.267Z,99.99
2023-12-04T02:21:16.279Z,99.99
2023-12-04T02:22:16.252Z,99.99
2023-12-04T02:23:16.239Z,99.99
2023-12-04T02:24:16.246Z,99.99
2023-12-04T02:25:26.394Z,99.99
2023-12-04T02:26:16.236Z,99.99
2023-12-04T02:27:16.195Z,99.99
2023-12-04T02:28:16.188Z,99.99
2023-12-04T02:29:16.170Z,99.99
2023-12-04T02:30:16.185Z,99.99
2023-12-04T02:31:16.182Z,99.99
2023-12-04T02:32:16.149Z,99.99
2023-12-04T02:33:16.190Z,99.99
2023-12-04T02:34:16.221Z,99.99
2023-12-04T02:35:16.117Z,99.99
2023-12-04T02:36:16.107Z,99.99
2023-12-04T02:37:16.086Z,99.99
2023-12-04T02:38:16.090Z,99.99
2023-12-04T02:39:16.087Z,99.99
2023-12-04T02:40:16.091Z,99.99
2023-12-04T02:41:16.053Z,99.99
2023-12-04T02:42:16.041Z,99.99
2023-12-04T02:43:16.053Z,99.99
2023-12-04T02:44:16.036Z,99.99
2023-12-04T02:45:16.006Z,99.99
2023-12-04T02:46:15.991Z,99.99
2023-12-04T02:47:15.988Z,99.99
2023-12-04T02:48:16.046Z,99.99
2023-12-04T02:49:16.039Z,99.99
2023-12-04T02:50:15.956Z,99.99
2023-12-04T02:51:15.938Z,99.99
2023-12-04T02:52:15.928Z,99.99
2023-12-04T02:53:15.955Z,99.99
2023-12-04T02:54:15.928Z,99.99
2023-12-04T02:55:15.942Z,99.99
2023-12-04T02:56:15.901Z,99.99
2023-12-04T02:57:15.908Z,99.99
2023-12-04T02:58:15.953Z,99.99
2023-12-04T02:59:15.846Z,99.99
2023-12-04T03:00:15.844Z,99.99
2023-12-04T03:01:15.837Z,99.99
2023-12-04T03:02:15.830Z,99.99
2023-12-04T03:03:15.876Z,99.99
2023-12-04T03:04:15.886Z,99.99
2023-12-04T03:05:15.793Z,99.99
2023-12-04T03:06:15.817Z,99.99
2023-12-04T03:07:15.818Z,99.99
2023-12-04T03:08:15.791Z,99.99
2023-12-04T03:09:15.742Z,99.99
2023-12-04T03:10:15.757Z,99.99
2023-12-04T03:11:15.728Z,99.99
2023-12-04T03:12:15.727Z,99.99
2023-12-04T03:13:15.730Z,99.99
2023-12-04T03:14:15.693Z,99.99
2023-12-04T03:15:15.681Z,99.99
2023-12-04T03:16:15.673Z,99.99
2023-12-04T03:17:15.682Z,99.99
2023-12-04T03:18:15.727Z,99.99
2023-12-04T03:19:15.716Z,99.99
2023-12-04T03:20:15.623Z,99.99
2023-12-04T03:21:15.635Z,99.99
2023-12-04T03:22:15.720Z,99.99
2023-12-04T03:23:15.608Z,99.99
2023-12-04T03:24:15.582Z,99.99
2023-12-04T03:25:15.669Z,99.99
2023-12-04T03:26:15.637Z,99.99
2023-12-04T03:27:15.556Z,99.99
2023-12-04T03:28:15.543Z,99.99
2023-12-04T03:29:15.538Z,99.99
2023-12-04T03:30:15.528Z,99.99
2023-12-04T03:31:15.551Z,99.99
2023-12-04T03:32:15.491Z,99.99
2023-12-04T03:33:15.587Z,99.99
2023-12-04T03:34:15.555Z,99.99
2023-12-04T03:35:15.478Z,99.99
2023-12-04T03:36:15.469Z,99.99
2023-12-04T03:37:15.511Z,99.99
2023-12-04T03:38:15.446Z,99.99
2023-12-04T03:39:15.427Z,99.99
2023-12-04T03:40:15.444Z,99.99
2023-12-04T03:41:15.668Z,99.99
2023-12-04T03:42:15.392Z,99.99
2023-12-04T03:43:15.530Z,99.99
2023-12-04T03:44:15.376Z,99.99
2023-12-04T03:45:15.384Z,99.99
2023-12-04T03:46:15.399Z,99.99
2023-12-04T03:47:15.340Z,99.99
2023-12-04T03:48:15.384Z,99.99
2023-12-04T03:49:15.412Z,99.99
2023-12-04T03:50:15.312Z,99.99
2023-12-04T03:51:15.293Z,99.99
2023-12-04T03:52:15.304Z,99.99
2023-12-04T03:53:15.271Z,99.99
2023-12-04T03:54:15.275Z,99.99
2023-12-04T03:55:15.309Z,99.99
2023-12-04T03:56:15.261Z,99.99
2023-12-04T03:57:15.243Z,99.99
2023-12-04T03:58:15.271Z,99.99
2023-12-04T03:59:15.635Z,99.99
2023-12-04T04:00:15.199Z,99.99
2023-12-04T04:01:15.279Z,99.99
2023-12-04T04:02:15.174Z,99.99
2023-12-04T04:03:15.192Z,99.99
2023-12-04T04:04:15.187Z,99.99
2023-12-04T04:05:15.151Z,99.99
2023-12-04T04:06:15.138Z,99.99
2023-12-04T04:07:15.182Z,99.99
2023-12-04T04:08:15.130Z,99.99
2023-12-04T04:09:15.101Z,99.99
2023-12-04T04:10:15.135Z,99.99
2023-12-04T04:11:15.080Z,99.99
2023-12-04T04:12:15.062Z,99.99
2023-12-04T04:13:15.140Z,99.99
2023-12-04T04:14:15.043Z,99.99
2023-12-04T04:15:15.041Z,99.99
2023-12-04T04:16:15.050Z,99.99
2023-12-04T04:17:15.025Z,99.99
2023-12-04T04:18:15.112Z,99.99
2023-12-04T04:19:15.066Z,99.99
2023-12-04T04:20:14.973Z,99.99
2023-12-04T04:21:14.978Z,99.99
2023-12-04T04:22:15.014Z,99.99
2023-12-04T04:23:14.949Z,99.99
2023-12-04T04:24:14.943Z,99.99
2023-12-04T04:25:14.949Z,99.99
2023-12-04T04:26:14.926Z,99.99
2023-12-04T04:27:15.007Z,99.99
2023-12-04T04:28:14.907Z,99.99
2023-12-04T04:29:14.898Z,99.99
2023-12-04T04:30:14.884Z,99.99
2023-12-04T04:31:14.886Z,99.99
2023-12-04T04:32:15.285Z,99.99
2023-12-04T04:33:14.888Z,99.99
2023-12-04T04:34:14.892Z,99.99
2023-12-04T04:35:14.820Z,99.99
2023-12-04T04:36:14.829Z,99.99
2023-12-04T04:37:15.034Z,99.99
2023-12-04T04:38:14.786Z,99.99
2023-12-04T04:39:14.779Z,99.99
2023-12-04T04:40:14.787Z,99.99
2023-12-04T04:41:14.769Z,99.99
2023-12-04T04:42:14.738Z,99.99
2023-12-04T04:43:14.775Z,99.99
2023-12-04T04:44:14.723Z,99.99
2023-12-04T04:45:14.714Z,99.99
2023-12-04T04:46:14.734Z,99.99
2023-12-04T04:47:14.694Z,99.99
2023-12-04T04:48:14.679Z,99.99
2023-12-04T04:49:14.873Z,99.99
2023-12-04T04:50:14.667Z,99.99
2023-12-04T04:51:14.808Z,99.99
2023-12-04T04:52:14.679Z,99.99
2023-12-04T04:53:14.643Z,99.99
2023-12-04T04:54:14.655Z,99.99
2023-12-04T04:55:45.762Z,99.99
2023-12-04T04:56:14.589Z,99.99
2023-12-04T04:57:14.581Z,99.99
2023-12-04T04:58:14.579Z,99.99
2023-12-04T04:59:14.573Z,99.99
2023-12-04T05:00:14.559Z,99.99
2023-12-04T05:01:14.560Z,99.99
2023-12-04T05:02:14.579Z,99.99
2023-12-04T05:03:14.533Z,99.99
2023-12-04T05:04:14.617Z,99.99
2023-12-04T05:05:14.497Z,99.99
2023-12-04T05:06:14.497Z,99.99
2023-12-04T05:07:14.515Z,99.99
2023-12-04T05:08:14.452Z,99.99
2023-12-04T05:09:14.477Z,99.99
2023-12-04T05:10:14.476Z,99.99
2023-12-04T05:11:14.423Z,99.99
2023-12-04T05:12:14.406Z,99.99
2023-12-04T05:13:14.432Z,99.99
2023-12-04T05:14:14.423Z,99.99
2023-12-04T05:15:14.381Z,99.99
2023-12-04T05:16:14.392Z,99.99
2023-12-04T05:17:14.358Z,99.99
2023-12-04T05:18:14.365Z,99.99
2023-12-04T05:19:14.444Z,99.99
2023-12-04T05:20:14.320Z,99.99
2023-12-04T05:21:14.323Z,99.99
2023-12-04T05:22:14.378Z,99.99
2023-12-04T05:23:14.311Z,99.99
2023-12-04T05:24:14.301Z,99.99
2023-12-04T05:25:14.300Z,99.99
2023-12-04T05:26:14.271Z,99.99
2023-12-04T05:27:14.239Z,99.99
2023-12-04T05:28:14.280Z,99.99
2023-12-04T05:29:14.220Z,99.99
2023-12-04T05:30:14.214Z,99.99
2023-12-04T05:31:14.221Z,99.99
2023-12-04T05:32:14.196Z,99.99
2023-12-04T05:33:14.304Z,99.99
2023-12-04T05:34:14.243Z,99.99
2023-12-04T05:35:14.156Z,99.99
2023-12-04T05:36:14.153Z,99.99
2023-12-04T05:37:14.188Z,99.99
2023-12-04T05:38:14.145Z,99.99
2023-12-04T05:39:14.122Z,99.99
2023-12-04T05:40:14.231Z,99.99
2023-12-04T05:41:14.099Z,99.99
2023-12-04T05:42:14.094Z,99.99
2023-12-04T05:43:14.105Z,99.99
2023-12-04T05:44:14.060Z,99.99
2023-12-04T05:45:14.079Z,99.99
2023-12-04T05:46:14.101Z,99.99
2023-12-04T05:47:14.035Z,99.99
2023-12-04T05:48:14.013Z,99.99
2023-12-04T05:49:14.012Z,99.99
2023-12-04T05:50:13.993Z,99.99
2023-12-04T05:51:13.990Z,99.99
2023-12-04T05:52:14.074Z,99.99
2023-12-04T05:53:13.960Z,99.99
2023-12-04T05:54:13.953Z,99.99
2023-12-04T05:55:13.973Z,99.99
2023-12-04T05:56:13.956Z,99.99
2023-12-04T05:57:13.918Z,99.99
2023-12-04T05:58:13.950Z,99.99
2023-12-04T05:59:13.895Z,99.99
2023-12-04T06:00:14.231Z,99.98
2023-12-04T06:01:13.943Z,99.98
2023-12-04T06:02:14.029Z,99.88
2023-12-04T06:03:13.928Z,99.77
2023-12-04T06:04:13.925Z,99.66
2023-12-04T06:05:13.906Z,99.66
2023-12-04T06:06:13.847Z,99.66
2023-12-04T06:07:13.838Z,99.56
2023-12-04T06:08:13.812Z,99.56
2023-12-04T06:09:13.799Z,99.46
2023-12-04T06:10:13.962Z,99.35
2023-12-04T06:11:13.792Z,99.46
2023-12-04T06:12:13.779Z,99.25
2023-12-04T06:13:13.806Z,99.15
2023-12-04T06:14:13.776Z,99.15
2023-12-04T06:15:13.824Z,99.04
2023-12-04T06:16:13.837Z,98.93
2023-12-04T06:17:13.714Z,99.04
2023-12-04T06:18:13.816Z,99.15
2023-12-04T06:19:13.749Z,99.15
2023-12-04T06:20:13.733Z,98.93
2023-12-04T06:21:13.669Z,98.72
2023-12-04T06:22:13.690Z,98.62
2023-12-04T06:23:13.654Z,98.41
2023-12-04T06:24:13.673Z,98.31
2023-12-04T06:25:13.658Z,98.26
2023-12-04T06:26:13.632Z,98.31
2023-12-04T06:27:13.607Z,98.21
2023-12-04T06:28:13.621Z,97.99
2023-12-04T06:29:13.596Z,98.10
2023-12-04T06:30:13.586Z,97.99
2023-12-04T06:31:13.651Z,97.89
2023-12-04T06:32:13.559Z,97.89
2023-12-04T06:33:13.539Z,97.99
2023-12-04T06:34:13.575Z,98.10
2023-12-04T06:35:15.020Z,98.10
2023-12-04T06:36:13.527Z,98.10
2023-12-04T06:37:13.515Z,98.10
2023-12-04T06:38:13.513Z,98.10
2023-12-04T06:39:13.499Z,98.10
2023-12-04T06:40:13.507Z,98.21
2023-12-04T06:41:13.473Z,98.25
2023-12-04T06:42:13.450Z,98.25
2023-12-04T06:43:13.507Z,98.25
2023-12-04T06:44:13.427Z,98.25
2023-12-04T06:45:13.421Z,98.14
2023-12-04T06:46:13.449Z,98.14
2023-12-04T06:47:13.389Z,98.04
2023-12-04T06:48:13.417Z,98.04
2023-12-04T06:49:13.450Z,98.14
2023-12-04T06:50:13.386Z,98.14
2023-12-04T06:51:13.345Z,98.14
2023-12-04T06:52:13.373Z,98.14
2023-12-04T06:53:13.337Z,98.04
2023-12-04T06:54:13.323Z,97.72
2023-12-04T06:55:13.320Z,97.72
2023-12-04T06:56:13.298Z,97.83
2023-12-04T06:57:13.377Z,97.83
2023-12-04T06:58:13.443Z,97.83
2023-12-04T06:59:13.261Z,97.72
2023-12-04T07:00:21.109Z,97.83
2023-12-04T07:01:13.296Z,97.83
2023-12-04T07:02:13.258Z,97.83
2023-12-04T07:03:13.216Z,97.94
2023-12-04T07:04:13.253Z,97.83
2023-12-04T07:05:13.227Z,97.72
2023-12-04T07:06:13.200Z,97.72
2023-12-04T07:07:13.230Z,97.72
2023-12-04T07:08:13.170Z,97.83
2023-12-04T07:09:13.153Z,97.72
2023-12-04T07:10:13.178Z,97.72
2023-12-04T07:11:13.141Z,97.72
2023-12-04T07:12:13.182Z,97.62
2023-12-04T07:13:13.149Z,97.41
2023-12-04T07:14:13.105Z,97.20
2023-12-04T07:15:13.122Z,97.20
2023-12-04T07:16:13.138Z,97.10
2023-12-04T07:17:13.059Z,97.10
2023-12-04T07:18:13.283Z,97.10
2023-12-04T07:19:13.112Z,97.10
2023-12-04T07:20:13.161Z,96.68
2023-12-04T07:21:13.034Z,96.47
2023-12-04T07:22:13.076Z,96.47
2023-12-04T07:23:13.005Z,96.58
2023-12-04T07:24:13.000Z,96.58
2023-12-04T07:25:13.019Z,96.58
2023-12-04T07:26:12.992Z,96.58
2023-12-04T07:27:12.958Z,96.47
2023-12-04T07:28:12.960Z,96.37
2023-12-04T07:29:12.943Z,96.16
2023-12-04T07:30:14.403Z,96.16
2023-12-04T07:31:13.007Z,96.05
2023-12-04T07:32:12.899Z,96.05
2023-12-04T07:33:12.992Z,96.05
2023-12-04T07:34:12.961Z,95.84
2023-12-04T07:35:12.890Z,95.84
2023-12-04T07:36:12.871Z,95.84
2023-12-04T07:37:12.872Z,95.74
2023-12-04T07:38:12.848Z,95.74
2023-12-04T07:39:13.374Z,95.84
2023-12-04T07:40:12.880Z,95.74
2023-12-04T07:41:12.812Z,95.53
2023-12-04T07:42:13.600Z,95.43
2023-12-04T07:43:12.798Z,95.32
2023-12-04T07:44:12.791Z,95.43
2023-12-04T07:45:12.817Z,95.43
2023-12-04T07:46:12.845Z,95.53
2023-12-04T07:47:12.743Z,95.53
2023-12-04T07:48:12.759Z,95.32
2023-12-04T07:49:12.991Z,95.11
2023-12-04T07:50:12.700Z,95.11
2023-12-04T07:51:12.705Z,95.01
2023-12-04T07:52:12.728Z,94.80
2023-12-04T07:53:12.692Z,94.65
2023-12-04T07:54:12.691Z,94.55
2023-12-04T07:55:12.723Z,94.55
2023-12-04T07:56:12.645Z,94.65
2023-12-04T07:57:12.637Z,94.76
2023-12-04T07:58:12.663Z,94.65
2023-12-04T07:59:12.648Z,94.44
2023-12-04T08:00:12.615Z,94.34
2023-12-04T08:01:12.656Z,94.23
2023-12-04T08:02:12.584Z,94.34
2023-12-04T08:03:12.617Z,94.02
2023-12-04T08:04:12.642Z,94.02
2023-12-04T08:05:13.835Z,93.92
2023-12-04T08:06:12.587Z,94.02
2023-12-04T08:07:12.606Z,93.82
2023-12-04T08:08:12.529Z,93.82
2023-12-04T08:09:12.530Z,93.92
2023-12-04T08:10:12.501Z,93.82
2023-12-04T08:11:12.488Z,93.50
2023-12-04T08:12:12.489Z,93.61
2023-12-04T08:13:12.480Z,93.82
2023-12-04T08:14:12.448Z,93.61
2023-12-04T08:15:12.455Z,93.40
2023-12-04T08:16:12.454Z,93.40
2023-12-04T08:17:12.443Z,93.19
2023-12-04T08:18:12.516Z,93.08
2023-12-04T08:19:12.525Z,93.19
2023-12-04T08:20:12.564Z,93.29
2023-12-04T08:21:12.432Z,93.40
2023-12-04T08:22:12.435Z,93.40
2023-12-04T08:23:12.369Z,93.29
2023-12-04T08:24:12.367Z,93.19
2023-12-04T08:25:12.408Z,93.19
2023-12-04T08:26:12.337Z,93.19
2023-12-04T08:27:12.306Z,93.19
2023-12-04T08:28:12.314Z,93.08
2023-12-04T08:29:12.287Z,93.08
2023-12-04T08:30:12.279Z,93.15
2023-12-04T08:31:12.302Z,92.94
2023-12-04T08:32:12.306Z,92.63
2023-12-04T08:33:12.297Z,92.52
2023-12-04T08:34:12.254Z,92.31
2023-12-04T08:35:12.273Z,92.10
2023-12-04T08:36:12.246Z,92.00
2023-12-04T08:37:12.247Z,92.00
2023-12-04T08:38:12.376Z,92.31
2023-12-04T08:39:12.190Z,92.21
2023-12-04T08:40:12.220Z,91.89
2023-12-04T08:41:12.175Z,91.89
2023-12-04T08:42:17.541Z,91.89
2023-12-04T08:43:12.190Z,91.89
2023-12-04T08:44:12.186Z,91.64
2023-12-04T08:45:12.134Z,91.64
2023-12-04T08:46:12.190Z,91.54
2023-12-04T08:47:12.094Z,91.43
2023-12-04T08:48:12.094Z,91.43
2023-12-04T08:49:12.330Z,91.33
2023-12-04T08:50:12.091Z,91.43
2023-12-04T08:51:12.052Z,91.12
2023-12-04T08:52:12.080Z,91.12
2023-12-04T08:53:12.044Z,91.12
2023-12-04T08:55:12.152Z,90.70
2023-12-04T08:56:14.472Z,90.39
2023-12-04T08:57:12.123Z,90.60
2023-12-04T08:58:12.146Z,90.08
2023-12-04T08:59:11.989Z,89.87
2023-12-04T09:00:11.964Z,89.83
2023-12-04T09:01:12.014Z,89.83
2023-12-04T09:02:14.116Z,90.03
2023-12-04T09:03:18.449Z,89.93
2023-12-04T09:04:12.065Z,89.62
2023-12-04T09:05:12.041Z,89.72
2023-12-04T09:06:11.977Z,89.41
2023-12-04T09:08:26.548Z,89.51
2023-12-04T09:08:44.265Z,89.51
2023-12-04T09:09:14.348Z,89.10
2023-12-04T09:10:16.998Z,89.41
2023-12-04T09:11:20.518Z,89.10
2023-12-04T09:12:11.836Z,88.99
2023-12-04T09:13:11.823Z,88.78
2023-12-04T09:14:11.830Z,88.89
2023-12-04T09:15:11.807Z,88.78
2023-12-04T09:16:11.786Z,88.68
2023-12-04T09:17:11.820Z,88.47
2023-12-04T09:18:11.913Z,88.16
2023-12-04T09:19:11.979Z,88.22
2023-12-04T09:20:11.833Z,88.01
2023-12-04T09:21:11.741Z,87.91
2023-12-04T09:22:17.475Z,88.12
2023-12-04T09:23:11.716Z,88.22
2023-12-04T09:24:11.728Z,88.53
2023-12-04T09:25:11.688Z,88.01
2023-12-04T09:26:11.720Z,87.91
2023-12-04T09:27:12.274Z,88.22
2023-12-04T09:28:11.656Z,87.70
2023-12-04T09:29:11.640Z,87.81
2023-12-04T09:30:11.642Z,87.28
2023-12-04T09:31:11.663Z,87.28
2023-12-04T09:32:11.676Z,87.49
2023-12-04T09:33:11.677Z,87.81
2023-12-04T09:34:11.589Z,87.81
2023-12-04T09:35:11.593Z,87.60
2023-12-04T09:36:11.702Z,87.49
2023-12-04T09:37:12.766Z,87.49
2023-12-04T09:38:11.560Z,87.60
2023-12-04T09:39:11.564Z,87.39
2023-12-04T09:40:11.568Z,87.14
2023-12-04T09:41:11.521Z,87.14
2023-12-04T09:42:11.513Z,87.14
2023-12-04T09:43:11.493Z,86.83
2023-12-04T09:44:11.480Z,86.61
2023-12-04T09:45:11.476Z,87.14
2023-12-04T09:46:11.492Z,86.51
2023-12-04T09:47:11.626Z,86.30
2023-12-04T09:48:11.649Z,86.51
2023-12-04T09:49:11.559Z,86.51
2023-12-04T09:50:11.706Z,87.24
2023-12-04T09:51:11.464Z,87.45
2023-12-04T09:52:11.390Z,86.93
2023-12-04T09:53:11.398Z,86.83
2023-12-04T09:54:11.420Z,86.41
2023-12-04T09:55:11.368Z,87.04
2023-12-04T09:56:11.380Z,86.83
2023-12-04T09:57:11.381Z,87.10
2023-12-04T09:58:11.329Z,86.47
2023-12-04T09:59:11.327Z,85.89
2023-12-04T10:00:11.382Z,85.68
2023-12-04T10:01:11.322Z,85.74
2023-12-04T10:02:11.372Z,86.27
2023-12-04T10:03:11.312Z,85.33
2023-12-04T10:04:11.285Z,85.33
2023-12-04T10:05:11.318Z,85.85
2023-12-04T10:06:11.263Z,85.64
2023-12-04T10:07:11.243Z,85.74
2023-12-04T10:08:11.220Z,86.47
2023-12-04T10:09:11.220Z,86.27
2023-12-04T10:10:11.195Z,85.64
2023-12-04T10:11:11.183Z,85.43
2023-12-04T10:12:11.236Z,85.64
2023-12-04T10:13:11.197Z,85.43
2023-12-04T10:14:11.176Z,85.53
2023-12-04T10:15:11.256Z,85.33
2023-12-04T10:16:11.132Z,85.33
2023-12-04T10:17:11.117Z,85.53
2023-12-04T10:18:11.181Z,85.33
2023-12-04T10:19:11.210Z,84.60
2023-12-04T10:20:11.087Z,85.12
2023-12-04T10:21:16.596Z,85.33
2023-12-04T10:22:11.090Z,85.50
2023-12-04T10:23:11.067Z,85.29
2023-12-04T10:24:11.098Z,85.29
2023-12-04T10:25:11.036Z,84.77
2023-12-04T10:26:11.036Z,84.18
2023-12-04T10:27:11.077Z,84.28
2023-12-04T10:28:11.035Z,84.60
2023-12-04T10:29:10.986Z,85.33
2023-12-04T10:30:11.004Z,84.81
2023-12-04T10:31:10.968Z,84.28
2023-12-04T10:32:10.959Z,84.60
2023-12-04T10:33:11.173Z,84.70
2023-12-04T10:34:11.362Z,85.02
2023-12-04T10:35:10.917Z,84.39
2023-12-04T10:36:10.943Z,84.50
2023-12-04T10:37:10.914Z,84.77
2023-12-04T10:38:10.905Z,84.66
2023-12-04T10:39:10.919Z,84.66
2023-12-04T10:40:10.872Z,84.87
2023-12-04T10:41:10.862Z,84.87
2023-12-04T10:42:10.897Z,84.87
2023-12-04T10:43:10.832Z,84.77
2023-12-04T10:44:11.308Z,84.45
2023-12-04T10:45:10.871Z,84.14
2023-12-04T10:46:10.806Z,84.25
2023-12-04T10:47:10.806Z,84.25
2023-12-04T10:48:10.909Z,84.52
2023-12-04T10:49:10.865Z,83.83
2023-12-04T10:50:10.794Z,84.04
2023-12-04T10:51:10.841Z,84.35
2023-12-04T10:52:10.781Z,84.66
2023-12-04T10:53:10.731Z,84.66
2023-12-04T10:54:10.838Z,84.56
2023-12-04T10:55:10.725Z,84.04
2023-12-04T10:56:10.719Z,84.73
2023-12-04T10:57:10.770Z,84.73
2023-12-04T10:58:10.705Z,84.31
2023-12-04T10:59:10.696Z,83.69
2023-12-04T11:00:10.695Z,83.69
2023-12-04T11:01:10.693Z,83.83
2023-12-04T11:02:10.748Z,83.90
2023-12-04T11:03:10.761Z,83.48
2023-12-04T11:04:10.645Z,83.73
2023-12-04T11:05:10.665Z,83.69
2023-12-04T11:06:10.680Z,84.11
2023-12-04T11:07:10.582Z,84.11
2023-12-04T11:08:15.758Z,84.42
2023-12-04T11:09:10.670Z,84.83
2023-12-04T11:10:10.583Z,84.31
2023-12-04T11:11:10.681Z,83.69
2023-12-04T11:12:10.606Z,83.90
2023-12-04T11:13:11.441Z,84.21
2023-12-04T11:14:10.513Z,84.00
2023-12-04T11:15:10.521Z,83.69
2023-12-04T11:16:10.478Z,83.90
2023-12-04T11:17:10.461Z,84.21
2023-12-04T11:18:10.620Z,84.31
2023-12-04T11:19:10.527Z,83.90
2023-12-04T11:20:10.433Z,83.90
2023-12-04T11:21:10.544Z,84.21
2023-12-04T11:22:10.421Z,83.37
2023-12-04T11:23:10.400Z,83.06
2023-12-04T11:24:10.448Z,83.37
2023-12-04T11:25:10.387Z,82.75
2023-12-04T11:26:10.404Z,82.40
2023-12-04T11:27:10.375Z,82.82
2023-12-04T11:28:10.367Z,83.03
2023-12-04T11:29:10.359Z,83.13
2023-12-04T11:30:10.346Z,82.71
2023-12-04T11:31:10.336Z,82.71
2023-12-04T11:32:10.311Z,82.09
2023-12-04T11:33:10.406Z,82.51
2023-12-04T11:34:10.352Z,82.09
2023-12-04T11:35:10.272Z,82.51
2023-12-04T11:36:12.700Z,83.23
2023-12-04T11:37:10.273Z,82.82
2023-12-04T11:38:10.252Z,83.20
2023-12-04T11:39:10.301Z,83.51
2023-12-04T11:40:10.219Z,83.09
2023-12-04T11:41:10.202Z,82.57
2023-12-04T11:42:10.269Z,82.26
2023-12-04T11:43:10.175Z,81.74
2023-12-04T11:44:10.175Z,81.53
2023-12-04T11:45:10.227Z,81.22
2023-12-04T11:46:10.158Z,81.53
2023-12-04T11:47:10.161Z,81.63
2023-12-04T11:48:10.244Z,81.22
2023-12-04T11:49:10.190Z,81.32
2023-12-04T11:50:10.109Z,81.39
2023-12-04T11:51:10.154Z,80.98
2023-12-04T11:52:10.101Z,81.70
2023-12-04T11:53:10.075Z,81.60
2023-12-04T11:54:10.129Z,80.56
2023-12-04T11:55:10.049Z,80.60
2023-12-04T11:56:10.149Z,81.01
2023-12-04T11:57:10.224Z,80.60
2023-12-04T11:58:10.039Z,80.98
2023-12-04T11:59:10.015Z,80.77
2023-12-04T12:00:10.039Z,80.56
2023-12-04T12:01:10.033Z,80.98
2023-12-04T12:02:10.139Z,81.29
2023-12-04T12:03:17.875Z,81.18
2023-12-04T12:04:10.124Z,80.87
2023-12-04T12:05:10.022Z,80.66
2023-12-04T12:06:10.147Z,80.98
2023-12-04T12:07:09.973Z,80.25
2023-12-04T12:08:09.959Z,80.04
2023-12-04T12:09:09.945Z,80.15
2023-12-04T12:10:09.903Z,80.46
2023-12-04T12:11:09.884Z,80.66
2023-12-04T12:12:09.906Z,81.18
2023-12-04T12:13:09.879Z,80.98
2023-12-04T12:14:09.844Z,80.56
2023-12-04T12:15:09.866Z,81.04
2023-12-04T12:16:09.878Z,81.15
2023-12-04T12:17:09.838Z,80.94
2023-12-04T12:18:10.032Z,80.94
2023-12-04T12:19:09.843Z,79.94
2023-12-04T12:20:09.779Z,79.41
2023-12-04T12:21:09.829Z,79.83
2023-12-04T12:22:09.782Z,80.46
2023-12-04T12:23:09.770Z,80.77
2023-12-04T12:24:09.777Z,80.46
2023-12-04T12:25:09.723Z,80.32
2023-12-04T12:26:09.781Z,80.00
2023-12-04T12:27:09.908Z,80.21
2023-12-04T12:28:09.698Z,80.11
2023-12-04T12:29:09.685Z,79.48
2023-12-04T12:30:09.767Z,79.58
2023-12-04T12:31:09.668Z,79.69
2023-12-04T12:32:09.662Z,79.41
2023-12-04T12:33:09.814Z,79.94
2023-12-04T12:34:09.837Z,79.52
2023-12-04T12:35:09.617Z,79.83
2023-12-04T12:36:09.661Z,80.35
2023-12-04T12:37:09.591Z,79.72
2023-12-04T12:38:10.264Z,78.58
2023-12-04T12:39:09.616Z,79.83
2023-12-04T12:40:09.563Z,81.29
2023-12-04T12:41:09.793Z,81.18
2023-12-04T12:42:09.601Z,81.18
2023-12-04T12:43:09.662Z,78.89
2023-12-04T12:44:09.541Z,78.48
2023-12-04T12:45:09.544Z,78.79
2023-12-04T12:46:09.583Z,78.89
2023-12-04T12:47:09.487Z,78.58
2023-12-04T12:48:09.557Z,78.06
2023-12-04T12:49:09.554Z,78.17
2023-12-04T12:50:09.557Z,78.27
2023-12-04T12:51:09.476Z,79.10
2023-12-04T12:52:09.887Z,78.58
2023-12-04T12:53:09.422Z,79.00